This is the latest recevied weather packets stored in our database for station/object KE7KUS-14. If no packets are shown the sender has not sent any weather packets the latest 10 day(s).
| Time | Temp. | Humidity | Pressure | Rain* | Wind** | Luminosity | Snow |
|---|---|---|---|---|---|---|---|
| 1778202139 | 18.33° C | 21% | 1025.3 hPa | 0 mm | - | 67 W/m² | - |
| 1778200948 | 18.33° C | 21% | 1025.3 hPa | 0 mm | - | 104 W/m² | - |
| 1778199131 | 18.33° C | 20% | 1025.1 hPa | 0 mm | - | 174 W/m² | - |
| 1778198545 | 18.89° C | 21% | 1025.2 hPa | 0 mm | - | 190 W/m² | - |
| 1778195580 | 19.44° C | 19% | 1025.4 hPa | 0 mm | - | 361 W/m² | - |
| 1778187764 | 19.44° C | 22% | 1026.4 hPa | 0 mm | - | 652 W/m² | - |
| 1778185363 | 18.89° C | 24% | 1026.8 hPa | 0 mm | - | 713 W/m² | - |
| 1778179321 | 17.22° C | 25% | 1027.6 hPa | 0 mm | - | 748 W/m² | - |
| 1778178672 | 17.22° C | 25% | 1027.9 hPa | 0 mm | - | 745 W/m² | - |
| 1778174516 | 16.67° C | 25% | 1028.3 hPa | 0 mm | - | 757 W/m² | - |
| 1778173282 | 16.67° C | 24% | 1028.3 hPa | 0 mm | - | 813 W/m² | - |
| 1778170878 | 15.56° C | 23% | 1028.5 hPa | 0 mm | - | 751 W/m² | - |
| 1778169726 | 15° C | 24% | 1028.6 hPa | 0 mm | - | 647 W/m² | - |
| 1778166739 | 14.44° C | 23% | 1028.6 hPa | 0 mm | - | 408 W/m² | - |
| 1778164900 | 13.89° C | 25% | 1028.5 hPa | 0 mm | - | 300 W/m² | - |
| 1778164337 | 13.33° C | 25% | 1028.7 hPa | 0 mm | - | 265 W/m² | - |
| 1778163731 | 12.22° C | 32% | 1028.6 hPa | 0 mm | - | 240 W/m² | - |
| 1778162498 | 9.44° C | 34% | 1028.7 hPa | 0 mm | - | 184 W/m² | - |
| 1778160112 | 5.56° C | 40% | 1028.4 hPa | 0 mm | - | 47 W/m² | - |
| 1778155288 | 5° C | 39% | 1028 hPa | 0 mm | - | 0 W/m² | - |
| 1778146324 | 6.67° C | 34% | 1027.6 hPa | 0 mm | - | 0 W/m² | - |
| 1778143941 | 6.11° C | 36% | 1027.6 hPa | 0 mm | - | 0 W/m² | - |
| 1778139700 | 7.22° C | 33% | 1027.7 hPa | 0 mm | - | 0 W/m² | - |
| 1778139115 | 6.67° C | 32% | 1027.6 hPa | 0 mm | - | 0 W/m² | - |
| 1778136710 | 6.67° C | 32% | 1028.1 hPa | 0 mm | - | 0 W/m² | - |
* Rain latest hour (hover to see other rain measurements)
** Current wind speed in m/s (hover to see current wind gust speed)